createdAt,value
2022-10-26T00:00:59.259Z,9.30
2022-10-26T00:06:14.770Z,8.10
2022-10-26T00:11:20.904Z,7.53
2022-10-26T00:16:28.650Z,9.20
2022-10-26T00:21:34.492Z,9.50
2022-10-26T00:26:40.617Z,17.07
2022-10-26T00:31:45.933Z,8.00
2022-10-26T00:36:51.114Z,10.73
2022-10-26T00:41:56.310Z,10.30
2022-10-26T00:47:01.529Z,4.37
2022-10-26T00:52:10.607Z,11.17
2022-10-26T00:57:19.516Z,14.37
2022-10-26T01:02:25.287Z,13.87
2022-10-26T01:07:30.640Z,19.33
2022-10-26T01:12:35.785Z,17.90
2022-10-26T01:18:02.506Z,19.43
2022-10-26T01:23:13.508Z,10.70
2022-10-26T01:28:42.935Z,15.83
2022-10-26T01:33:54.149Z,14.73
2022-10-26T01:39:05.417Z,17.83
2022-10-26T01:44:13.580Z,11.60
2022-10-26T01:49:21.729Z,21.83
2022-10-26T01:54:27.078Z,13.53
2022-10-26T01:59:38.375Z,22.67
2022-10-26T02:05:04.850Z,13.67
2022-10-26T02:10:24.975Z,12.30
2022-10-26T02:15:41.804Z,8.50
2022-10-26T02:20:50.007Z,9.57
2022-10-26T02:25:58.530Z,16.10
2022-10-26T02:31:06.372Z,12.73
2022-10-26T02:36:14.550Z,11.37
2022-10-26T02:41:23.492Z,13.93
2022-10-26T02:46:30.057Z,14.90
2022-10-26T02:57:04.104Z,12.10
2022-10-26T03:02:09.758Z,18.03
2022-10-26T03:07:16.554Z,19.60
2022-10-26T03:12:21.772Z,20.67
2022-10-26T03:17:26.982Z,17.67
2022-10-26T03:22:32.191Z,31.20
2022-10-26T03:27:38.118Z,30.47
2022-10-26T03:32:43.222Z,17.23
2022-10-26T03:37:48.808Z,19.33
2022-10-26T03:42:54.217Z,16.77
2022-10-26T03:47:59.506Z,25.03
2022-10-26T03:53:05.114Z,25.67
2022-10-26T03:58:10.813Z,28.67
2022-10-26T04:03:16.180Z,28.47
2022-10-26T04:08:22.045Z,28.27
2022-10-26T04:13:27.256Z,28.67
2022-10-26T04:18:32.482Z,29.73
2022-10-26T04:23:37.726Z,25.43
2022-10-26T04:28:51.325Z,22.93
2022-10-26T04:33:55.373Z,22.30
2022-10-26T04:39:01.400Z,21.07
2022-10-26T04:44:07.333Z,16.23
2022-10-26T04:49:15.812Z,19.77
2022-10-26T04:54:22.185Z,16.87
2022-10-26T04:59:30.300Z,11.93
2022-10-26T05:04:38.356Z,14.33
2022-10-26T05:09:45.656Z,11.57
2022-10-26T05:14:51.973Z,27.63
2022-10-26T05:19:59.723Z,16.20
2022-10-26T05:25:07.275Z,13.00
2022-10-26T05:30:13.037Z,17.03
2022-10-26T05:35:19.208Z,12.03
2022-10-26T05:40:25.285Z,9.97
2022-10-26T05:45:31.127Z,13.97
2022-10-26T05:50:39.108Z,17.70
2022-10-26T05:55:44.839Z,12.13
2022-10-26T06:01:01.992Z,13.13
2022-10-26T06:06:13.001Z,15.53
2022-10-26T06:11:21.694Z,13.37
2022-10-26T06:16:36.487Z,28.00
2022-10-26T06:22:05.931Z,14.43
2022-10-26T06:27:24.769Z,11.90
2022-10-26T06:32:34.567Z,16.33
2022-10-26T06:37:48.636Z,14.77
2022-10-26T06:43:02.664Z,10.93
2022-10-26T06:48:12.082Z,10.37
2022-10-26T06:53:26.209Z,10.50
2022-10-26T06:58:38.257Z,8.80
2022-10-26T07:03:48.397Z,7.53
2022-10-26T07:08:53.695Z,9.37
2022-10-26T07:13:58.862Z,11.67
2022-10-26T07:19:07.839Z,10.20
2022-10-26T07:29:50.035Z,9.73
2022-10-26T07:35:01.164Z,7.90
2022-10-26T07:40:08.967Z,6.37
2022-10-26T07:45:15.071Z,5.83
2022-10-26T07:50:21.159Z,7.80
2022-10-26T07:55:27.850Z,9.27
2022-10-26T08:00:33.923Z,7.50
2022-10-26T08:05:39.327Z,6.23
2022-10-26T08:10:46.057Z,7.40
2022-10-26T08:15:51.531Z,7.77
2022-10-26T08:21:01.898Z,13.73
2022-10-26T08:26:05.233Z,12.70
2022-10-26T08:31:10.574Z,9.23
2022-10-26T08:36:19.231Z,7.50
2022-10-26T08:41:37.240Z,8.07
2022-10-26T08:46:45.903Z,8.50
2022-10-26T08:51:54.089Z,9.63
2022-10-26T08:57:02.299Z,7.80
2022-10-26T09:02:15.901Z,9.67
2022-10-26T09:07:26.921Z,10.03
2022-10-26T09:12:44.284Z,8.63
2022-10-26T09:17:55.361Z,9.43
2022-10-26T09:23:32.247Z,10.77
2022-10-26T09:28:39.903Z,18.97
2022-10-26T09:33:46.544Z,7.77
2022-10-26T09:39:16.914Z,10.47
2022-10-26T09:44:33.123Z,8.20
2022-10-26T09:49:50.043Z,10.47
2022-10-26T09:54:59.330Z,7.97
2022-10-26T10:00:12.883Z,8.27
2022-10-26T10:05:50.901Z,9.83
2022-10-26T10:11:03.827Z,8.73
2022-10-26T10:16:15.316Z,11.57
2022-10-26T10:21:22.259Z,12.80
2022-10-26T10:26:31.696Z,11.00
2022-10-26T10:31:39.311Z,13.50
2022-10-26T10:36:44.616Z,13.17
2022-10-26T10:41:55.570Z,11.83
2022-10-26T10:53:44.346Z,7.90
2022-10-26T10:59:27.170Z,13.33
2022-10-26T11:10:37.581Z,8.67
2022-10-26T11:16:10.408Z,14.33
2022-10-26T11:21:37.900Z,12.20
2022-10-26T11:27:06.891Z,12.43
2022-10-26T11:37:50.916Z,12.13
2022-10-26T11:43:14.094Z,8.07
2022-10-26T11:48:31.293Z,12.70
2022-10-26T11:53:39.470Z,17.00
2022-10-26T11:58:46.776Z,14.33
2022-10-26T12:03:55.106Z,9.07
2022-10-26T12:09:15.297Z,14.57
2022-10-26T12:14:26.563Z,14.20
2022-10-26T12:19:37.104Z,14.03
2022-10-26T12:24:50.726Z,12.43
2022-10-26T12:30:15.216Z,15.80
2022-10-26T12:35:39.893Z,13.23
2022-10-26T12:40:46.129Z,12.30
2022-10-26T12:46:17.546Z,12.03
2022-10-26T12:51:25.730Z,21.63
2022-10-26T12:56:41.302Z,13.13
2022-10-26T13:01:58.618Z,17.77
2022-10-26T13:07:24.866Z,13.70
2022-10-26T13:12:32.991Z,11.03
2022-10-26T13:17:38.240Z,13.40
2022-10-26T13:22:48.937Z,11.67
2022-10-26T13:28:08.338Z,15.93
2022-10-26T13:33:25.728Z,14.50
2022-10-26T13:38:36.175Z,16.47
2022-10-26T13:43:42.967Z,14.03
2022-10-26T13:48:49.369Z,18.40
2022-10-26T13:53:59.415Z,13.20
2022-10-26T13:59:13.045Z,14.93
2022-10-26T14:04:31.231Z,21.03
2022-10-26T14:09:37.199Z,18.53
2022-10-26T14:14:43.045Z,14.13
2022-10-26T14:19:49.327Z,12.77
2022-10-26T14:25:21.009Z,15.90
2022-10-26T14:30:30.837Z,13.33
2022-10-26T14:35:36.499Z,14.27
2022-10-26T14:40:41.785Z,14.90
2022-10-26T14:45:52.567Z,15.60
2022-10-26T14:51:06.461Z,30.70
2022-10-26T14:56:38.692Z,49.07
2022-10-26T15:02:01.790Z,31.43
2022-10-26T15:07:15.843Z,15.53
2022-10-26T15:12:30.006Z,15.17
2022-10-26T15:17:40.686Z,22.10
2022-10-26T15:22:54.894Z,12.53
2022-10-26T15:28:17.632Z,22.70
2022-10-26T15:33:23.067Z,19.43
2022-10-26T15:38:31.218Z,16.50
2022-10-26T15:43:34.984Z,13.23
2022-10-26T15:48:40.741Z,14.47
2022-10-26T15:53:50.677Z,14.70
2022-10-26T15:59:00.752Z,12.57
2022-10-26T16:04:11.534Z,14.60
2022-10-26T16:09:20.358Z,13.50
2022-10-26T16:14:27.593Z,17.50
2022-10-26T16:19:33.694Z,18.13
2022-10-26T16:24:39.335Z,19.93
2022-10-26T16:29:44.533Z,20.50
2022-10-26T16:34:49.720Z,19.57
2022-10-26T16:40:02.393Z,15.60
2022-10-26T16:45:15.177Z,12.50
2022-10-26T16:50:23.438Z,17.83
2022-10-26T16:55:35.135Z,20.23
2022-10-26T17:00:41.222Z,15.30
2022-10-26T17:05:46.428Z,13.40
2022-10-26T17:10:53.931Z,23.57
2022-10-26T17:16:14.098Z,20.33
2022-10-26T17:21:22.942Z,16.13
2022-10-26T17:26:29.859Z,27.00
2022-10-26T17:31:38.469Z,23.60
2022-10-26T17:36:46.491Z,24.73
2022-10-26T17:41:51.598Z,26.43
2022-10-26T17:47:00.105Z,25.87
2022-10-26T17:52:06.803Z,23.97
2022-10-26T17:57:11.968Z,28.40
2022-10-26T18:02:18.785Z,24.73
2022-10-26T18:07:24.141Z,17.73
2022-10-26T18:12:29.285Z,20.57
2022-10-26T18:17:35.675Z,20.80
2022-10-26T18:22:42.633Z,19.63
2022-10-26T18:27:47.761Z,16.80
2022-10-26T18:32:54.819Z,14.00
2022-10-26T18:38:01.012Z,24.87
2022-10-26T18:43:06.151Z,17.57
2022-10-26T18:48:15.129Z,28.87
2022-10-26T18:53:23.384Z,32.13
2022-10-26T18:58:43.931Z,32.27
2022-10-26T19:03:51.282Z,32.87
2022-10-26T19:08:58.688Z,38.47
2022-10-26T19:14:22.398Z,45.77
2022-10-26T19:19:27.656Z,37.77
2022-10-26T19:24:34.740Z,30.43
2022-10-26T19:29:43.146Z,38.43
2022-10-26T19:34:49.976Z,31.37
2022-10-26T19:39:55.375Z,62.07
2022-10-26T19:45:00.748Z,44.73
2022-10-26T19:50:08.187Z,34.00
2022-10-26T19:55:17.873Z,45.50
2022-10-26T20:00:44.647Z,46.87
2022-10-26T20:05:50.989Z,65.10
2022-10-26T20:10:58.709Z,57.13
2022-10-26T20:16:10.626Z,50.73
2022-10-26T20:21:25.584Z,43.77
2022-10-26T20:26:45.396Z,31.43
2022-10-26T20:31:53.859Z,35.80
2022-10-26T20:36:57.442Z,36.27
2022-10-26T20:42:03.139Z,36.20
2022-10-26T20:47:10.587Z,42.13
2022-10-26T20:52:21.758Z,36.60
2022-10-26T20:57:28.925Z,28.43
2022-10-26T21:02:34.180Z,32.83
2022-10-26T21:07:39.290Z,27.33
2022-10-26T21:12:45.658Z,29.80
2022-10-26T21:17:50.872Z,23.20
2022-10-26T21:22:56.942Z,26.43
2022-10-26T21:28:02.160Z,26.30
2022-10-26T21:33:07.319Z,27.17
2022-10-26T21:38:12.467Z,21.87
2022-10-26T21:43:19.606Z,30.97
2022-10-26T21:48:25.625Z,22.80
2022-10-26T21:53:31.594Z,19.97
2022-10-26T21:58:37.513Z,17.40
2022-10-26T22:03:43.612Z,20.50
2022-10-26T22:08:48.947Z,22.93
2022-10-26T22:13:54.712Z,17.60
2022-10-26T22:19:02.492Z,20.40
2022-10-26T22:24:08.922Z,19.83
2022-10-26T22:29:14.091Z,18.97
2022-10-26T22:34:19.313Z,21.37
2022-10-26T22:39:25.588Z,21.47
2022-10-26T22:44:30.917Z,20.70
2022-10-26T22:49:36.097Z,23.57
2022-10-26T23:06:33.262Z,22.63
2022-10-26T23:11:39.678Z,23.77
2022-10-26T23:16:44.936Z,27.97
2022-10-26T23:21:50.152Z,25.10
2022-10-26T23:26:55.516Z,22.53
2022-10-26T23:32:00.651Z,29.13
2022-10-26T23:42:31.701Z,24.43
2022-10-26T23:47:36.854Z,24.00
2022-10-26T23:52:42.098Z,34.40
2022-10-26T23:57:47.669Z,31.57
